Time;durP1;ratioP1;P1;durP2;ratioP2;P2;SDS_P1;SDS_P2;PMS_P1;PMS_P2;Temp;Humidity;BMP_temperature;BMP_pressure;BME280_temperature;BME280_humidity;BME280_pressure;Samples;Min_cycle;Max_cycle;Signal;HPM_P1;HPM_P2
2022/06/08 00:00:46;;;;;;;;;;;20.30;66.00;;;19.67;61.89;95883.00;4154243;34;20052;-87
2022/06/08 00:03:17;;;;;;;;;;;20.30;66.00;;;19.68;61.67;95872.72;4154650;34;20018;-86
2022/06/08 00:05:47;;;;;;;;;;;20.30;66.10;;;19.66;61.76;95875.81;4177610;34;19903;-87
2022/06/08 00:08:16;;;;;;;;;;;20.30;66.00;;;19.66;61.56;95875.00;4154507;34;19903;-86
2022/06/08 00:10:45;;;;;;;;;;;20.30;66.00;;;19.66;61.69;95863.91;4176732;34;19999;-86
2022/06/08 00:13:14;;;;;;;;;;;20.30;66.10;;;19.63;61.60;95863.44;4154809;34;19975;-86
2022/06/08 00:15:43;;;;;;;;;;;20.30;66.10;;;19.65;61.66;95859.50;4177434;34;20088;-85
2022/06/08 00:18:11;;;;;;;;;;;20.30;66.10;;;19.65;61.37;95856.72;4154427;34;20289;-86
2022/06/08 00:20:40;;;;;;;;;;;20.30;66.00;;;19.63;61.66;95855.09;4177093;34;19904;-86
2022/06/08 00:23:11;;;;;;;;;;;20.30;66.00;;;19.61;61.48;95853.81;4154430;34;20130;-85
2022/06/08 00:25:40;;;;;;;;;;;20.30;66.00;;;19.62;61.50;95855.44;4177407;34;19910;-85
2022/06/08 00:28:09;;;;;;;;;;;20.30;65.90;;;19.62;61.69;95864.56;4154582;34;19903;-86
2022/06/08 00:30:38;;;;;;;;;;;20.30;65.90;;;19.62;61.70;95859.03;4176782;34;20172;-86
2022/06/08 00:33:07;;;;;;;;;;;20.30;65.90;;;19.60;61.75;95846.63;4154535;34;19915;-86
2022/06/08 00:35:36;;;;;;;;;;;20.30;65.90;;;19.61;61.49;95845.50;4200313;33;20130;-86
2022/06/08 00:38:04;;;;;;;;;;;20.30;66.10;;;19.59;61.60;95836.69;4200410;33;20214;-86
2022/06/08 00:40:52;;;;;;;;;;;20.30;66.10;;;19.60;61.41;95838.31;4176737;34;20144;-86
2022/06/08 00:43:21;;;;;;;;;;;20.30;66.00;;;19.60;61.66;95841.88;4177150;34;19939;-86
2022/06/08 00:45:50;;;;;;;;;;;20.30;65.90;;;19.59;61.40;95843.03;4200117;33;19903;-85
2022/06/08 00:48:19;;;;;;;;;;;20.30;66.00;;;19.58;61.52;95833.06;4154330;34;19903;-85
2022/06/08 00:50:50;;;;;;;;;;;20.30;66.00;;;19.56;61.76;95827.03;4153679;34;19911;-85
2022/06/08 00:53:23;;;;;;;;;;;20.30;66.00;;;19.58;61.44;95840.59;4154044;34;20328;-85
2022/06/08 00:55:53;;;;;;;;;;;20.30;66.00;;;19.57;61.38;95834.22;4154280;34;19972;-86
2022/06/08 00:58:25;;;;;;;;;;;20.30;66.00;;;19.57;61.86;95834.22;4154003;34;20090;-86
2022/06/08 01:00:54;;;;;;;;;;;20.20;65.90;;;19.57;61.49;95828.66;4153835;34;19926;-86
2022/06/08 01:03:24;;;;;;;;;;;20.20;65.90;;;19.55;61.45;95828.22;4177054;34;19903;-86
2022/06/08 01:05:59;;;;;;;;;;;20.20;65.90;;;19.55;61.40;95828.22;4176954;34;20355;-86
2022/06/08 01:08:31;;;;;;;;;;;20.20;65.90;;;19.55;61.24;95833.78;4176964;34;20261;-85
2022/06/08 01:11:06;;;;;;;;;;;20.20;65.90;;;19.53;61.58;95821.34;4176664;34;19991;-85
2022/06/08 01:13:37;;;;;;;;;;;20.20;65.90;;;19.55;61.13;95831.00;4154277;34;20160;-85
2022/06/08 01:16:10;;;;;;;;;;;20.20;65.90;;;19.53;61.79;95826.91;4176992;34;19904;-85
2022/06/08 01:18:40;;;;;;;;;;;20.20;65.90;;;19.53;61.47;95832.47;4176885;34;20131;-86
2022/06/08 01:21:51;;;;;;;;;;;20.20;65.90;;;19.54;61.47;95825.75;4153442;34;20219;-86
2022/06/08 01:24:27;;;;;;;;;;;20.20;65.90;;;19.52;61.68;95820.56;4101673;34;19911;-86
2022/06/08 01:27:11;;;;;;;;;;;20.20;65.90;;;19.52;61.44;95822.50;4101579;34;19911;-86
2022/06/08 01:29:44;;;;;;;;;;;20.20;65.90;;;19.51;61.66;95818.09;4175908;33;20168;-85
2022/06/08 01:32:21;;;;;;;;;;;20.20;65.90;;;19.51;61.42;95809.78;4156179;34;19903;-86
2022/06/08 01:35:11;;;;;;;;;;;20.20;65.90;;;19.50;61.40;95822.84;4180083;34;20024;-86
2022/06/08 01:37:48;;;;;;;;;;;20.20;65.90;;;19.49;61.61;95818.44;4156357;34;20142;-86
2022/06/08 01:40:39;;;;;;;;;;;20.20;65.90;;;19.47;61.82;95810.47;4201747;33;20135;-86
2022/06/08 01:43:16;;;;;;;;;;;20.20;65.90;;;19.49;61.39;95824.00;4156272;34;19904;-85
2022/06/08 01:45:54;;;;;;;;;;;20.20;65.90;;;19.47;61.58;95820.75;4202426;33;19910;-85
2022/06/08 01:48:34;;;;;;;;;;;20.20;65.80;;;19.46;61.37;95814.41;4178983;34;19911;-86
2022/06/08 01:51:11;;;;;;;;;;;20.10;65.80;;;19.47;61.68;95823.53;4178368;34;20150;-86
2022/06/08 01:53:51;;;;;;;;;;;20.10;65.80;;;19.47;61.75;95820.75;4179045;34;20118;-86
2022/06/08 01:56:26;;;;;;;;;;;20.10;65.90;;;19.46;61.35;95819.94;4155968;34;20108;-86
2022/06/08 01:59:05;;;;;;;;;;;20.10;65.90;;;19.46;61.33;95822.72;4178999;34;19903;-85
2022/06/08 02:01:42;;;;;;;;;;;20.10;65.80;;;19.46;61.34;95821.91;4155528;34;20375;-85
2022/06/08 02:04:19;;;;;;;;;;;20.10;65.90;;;19.45;61.47;95821.09;4202014;33;19910;-87
2022/06/08 02:06:52;;;;;;;;;;;20.10;65.80;;;19.45;61.67;95828.59;4156090;34;20358;-86
2022/06/08 02:09:27;;;;;;;;;;;20.10;65.90;;;19.45;61.62;95828.59;4155961;34;19937;-86
2022/06/08 02:11:59;;;;;;;;;;;20.10;65.90;;;19.43;61.80;95817.00;4178416;34;19903;-86
2022/06/08 02:14:39;;;;;;;;;;;20.10;66.00;;;19.43;61.39;95823.38;4155874;34;19903;-86
2022/06/08 02:17:11;;;;;;;;;;;20.10;65.90;;;19.42;61.49;95819.00;4155821;34;19911;-86
2022/06/08 02:19:43;;;;;;;;;;;20.10;66.00;;;19.43;61.71;95819.78;4155778;34;19910;-86
2022/06/08 02:22:17;;;;;;;;;;;20.10;66.00;;;19.42;61.32;95821.75;4149559;34;20002;-86
2022/06/08 02:24:50;;;;;;;;;;;20.10;65.80;;;19.42;61.58;95826.50;4128593;34;19903;-86
2022/06/08 02:27:23;;;;;;;;;;;20.10;65.90;;;19.41;61.67;95819.34;4128574;34;20394;-86
2022/06/08 02:29:54;;;;;;;;;;;20.10;65.90;;;19.40;61.56;95817.72;4128417;34;19903;-84
2022/06/08 02:35:14;;;;;;;;;;;20.10;65.90;;;19.39;61.46;95814.09;4127399;34;20162;-86
2022/06/08 02:37:43;;;;;;;;;;;20.10;65.90;;;19.39;61.36;95822.44;4127867;34;20181;-85
2022/06/08 02:40:17;;;;;;;;;;;20.10;65.90;;;19.38;61.62;95823.59;4127795;34;19903;-86
2022/06/08 02:42:58;;;;;;;;;;;20.10;66.00;;;19.38;61.55;95820.00;4151126;34;20154;-86
2022/06/08 02:45:31;;;;;;;;;;;20.00;65.90;;;19.38;61.69;95822.78;4173767;34;20211;-85
2022/06/08 02:48:04;;;;;;;;;;;20.10;65.90;;;19.38;61.39;95822.78;4150968;34;19911;-85
2022/06/08 02:50:34;;;;;;;;;;;20.10;65.90;;;19.38;61.47;95820.00;4150471;34;19910;-85
2022/06/08 02:53:10;;;;;;;;;;;20.10;66.00;;;19.38;61.69;95822.78;4150966;34;20087;-85
2022/06/08 02:55:45;;;;;;;;;;;20.10;66.00;;;19.38;61.28;95829.13;4128194;34;20118;-85
2022/06/08 02:58:18;;;;;;;;;;;20.00;65.80;;;19.38;61.53;95833.88;4150903;34;20094;-86
2022/06/08 03:00:55;;;;;;;;;;;20.00;65.80;;;19.38;61.62;95822.78;4150435;34;19910;-86
2022/06/08 03:03:32;;;;;;;;;;;20.00;65.70;;;19.38;61.62;95828.34;4128122;34;20005;-85
2022/06/08 03:06:04;;;;;;;;;;;20.10;65.70;;;19.38;61.53;95820.00;4128139;34;19911;-85
2022/06/08 03:08:36;;;;;;;;;;;20.00;65.70;;;19.38;61.35;95826.34;4173574;34;19956;-85
2022/06/08 03:11:08;;;;;;;;;;;20.00;65.60;;;19.39;61.34;95827.97;4127699;34;19904;-85
2022/06/08 03:13:41;;;;;;;;;;;20.10;65.60;;;19.39;61.44;95827.97;4151560;34;20219;-86
2022/06/08 03:16:10;;;;;;;;;;;20.10;65.60;;;19.39;61.28;95827.19;4173558;34;19911;-85
2022/06/08 03:18:39;;;;;;;;;;;20.10;65.60;;;19.39;61.41;95827.19;4128081;34;19903;-85
2022/06/08 03:21:08;;;;;;;;;;;20.10;65.60;;;19.40;61.02;95834.38;4127377;34;19955;-86
2022/06/08 03:23:38;;;;;;;;;;;20.10;65.60;;;19.39;61.07;95833.53;4150630;34;20040;-86
2022/06/08 03:26:08;;;;;;;;;;;20.00;65.40;;;19.41;61.09;95824.88;4150227;34;20032;-86
2022/06/08 03:28:37;;;;;;;;;;;20.10;65.50;;;19.41;61.17;95830.44;4127906;34;19979;-85
2022/06/08 03:31:06;;;;;;;;;;;20.10;65.40;;;19.42;60.89;95837.63;4127460;34;19911;-85
2022/06/08 03:33:35;;;;;;;;;;;20.10;65.40;;;19.42;60.87;95838.41;4150526;34;20025;-85
2022/06/08 03:36:04;;;;;;;;;;;20.10;65.30;;;19.43;60.74;95828.94;4127624;34;19903;-84
2022/06/08 03:38:33;;;;;;;;;;;20.10;65.10;;;19.45;60.95;95832.19;4127736;34;19910;-85
2022/06/08 03:41:03;;;;;;;;;;;20.10;65.10;;;19.46;60.62;95827.44;4127178;34;20014;-86
2022/06/08 03:43:33;;;;;;;;;;;20.10;65.00;;;19.46;60.84;95827.44;4127878;34;19910;-86
2022/06/08 03:46:03;;;;;;;;;;;20.10;65.00;;;19.47;60.70;95834.63;4127129;34;20112;-86
2022/06/08 03:48:34;;;;;;;;;;;20.20;64.90;;;19.49;60.98;95832.34;4150339;34;19911;-85
2022/06/08 03:51:03;;;;;;;;;;;20.20;65.10;;;19.49;60.66;95835.09;4149860;34;20107;-85
2022/06/08 03:53:34;;;;;;;;;;;20.20;65.10;;;19.50;61.10;95833.97;4150244;34;20014;-85
2022/06/08 03:56:04;;;;;;;;;;;20.20;65.10;;;19.52;60.83;95837.22;4150147;34;19903;-85
2022/06/08 03:58:34;;;;;;;;;;;20.20;65.20;;;19.54;61.02;95834.09;4130197;34;20014;-86
2022/06/08 04:01:14;;;;;;;;;;;20.20;65.30;;;19.53;61.21;95833.28;4154243;34;19902;-86
2022/06/08 04:03:47;;;;;;;;;;;20.30;65.40;;;19.54;61.25;95831.31;4177650;34;19904;-86
2022/06/08 04:06:16;;;;;;;;;;;20.20;65.40;;;19.55;61.20;95831.00;4154654;34;20076;-86
2022/06/08 04:08:45;;;;;;;;;;;20.30;65.70;;;19.57;61.32;95845.31;4177480;34;19903;-86
2022/06/08 04:11:14;;;;;;;;;;;20.30;65.70;;;19.60;61.38;95844.66;4154134;34;19903;-86
2022/06/08 04:13:46;;;;;;;;;;;20.30;65.70;;;19.60;61.31;95839.09;4152814;34;20134;-86
2022/06/08 04:16:20;;;;;;;;;;;20.30;65.70;;;19.62;61.78;95845.13;4127106;34;19974;-87
2022/06/08 04:18:50;;;;;;;;;;;20.30;66.10;;;19.65;61.93;95845.63;4129139;34;19910;-87
2022/06/08 04:21:20;;;;;;;;;;;20.30;66.30;;;19.65;62.16;95848.41;4129960;34;19904;-86
2022/06/08 04:23:57;;;;;;;;;;;20.40;66.50;;;19.67;62.22;95848.88;4174997;34;20291;-86
2022/06/08 04:26:28;;;;;;;;;;;20.40;66.70;;;19.69;62.30;95857.66;4176951;34;20150;-87
2022/06/08 04:29:04;;;;;;;;;;;20.40;66.50;;;19.68;62.11;95848.53;4154342;34;20112;-86
2022/06/08 04:31:34;;;;;;;;;;;20.40;66.50;;;19.72;62.24;95851.44;4199792;33;20233;-86
2022/06/08 04:34:09;;;;;;;;;;;20.40;66.80;;;19.72;62.37;95843.94;4200389;33;20247;-86
2022/06/08 04:36:39;;;;;;;;;;;20.40;66.70;;;19.74;62.34;95849.13;4177112;34;19925;-86
2022/06/08 04:39:09;;;;;;;;;;;20.40;66.70;;;19.77;62.48;95851.25;4177088;34;20211;-85
2022/06/08 04:41:40;;;;;;;;;;;20.50;66.90;;;19.79;62.43;95851.72;4176527;34;19910;-85
2022/06/08 04:44:11;;;;;;;;;;;20.50;67.00;;;19.81;62.76;95854.97;4177223;34;20153;-86
2022/06/08 04:46:41;;;;;;;;;;;20.50;67.10;;;19.83;62.33;95846.28;4126846;34;19903;-86
2022/06/08 04:49:15;;;;;;;;;;;20.50;67.00;;;19.85;62.61;95850.34;4173513;34;19911;-86
2022/06/08 04:51:46;;;;;;;;;;;20.50;66.90;;;19.87;62.26;95850.06;4176628;34;20126;-86
2022/06/08 04:54:16;;;;;;;;;;;20.50;66.70;;;19.89;62.34;95850.50;4177019;34;20158;-86
2022/06/08 04:56:47;;;;;;;;;;;20.60;66.80;;;19.91;62.37;95856.53;4176773;34;19910;-85
2022/06/08 04:59:18;;;;;;;;;;;20.60;66.80;;;19.92;62.49;95856.22;4176971;34;20005;-85
2022/06/08 05:01:53;;;;;;;;;;;20.60;66.50;;;19.95;62.31;95865.00;4153404;34;19903;-86
2022/06/08 05:04:23;;;;;;;;;;;20.60;66.40;;;19.96;62.23;95858.28;4154156;34;20166;-85
2022/06/08 05:06:53;;;;;;;;;;;20.70;66.50;;;19.99;62.22;95865.94;4153896;34;19910;-85
2022/06/08 05:09:23;;;;;;;;;;;20.70;66.60;;;20.00;61.65;95857.28;4176832;34;20044;-87
2022/06/08 05:11:52;;;;;;;;;;;20.70;66.20;;;20.00;61.81;95862.03;4153569;34;20128;-86
2022/06/08 05:14:26;;;;;;;;;;;20.70;66.20;;;20.03;61.78;95864.94;4177045;34;20161;-86
2022/06/08 05:16:58;;;;;;;;;;;20.70;66.00;;;20.03;61.84;95855.78;4149879;34;19955;-86
2022/06/08 05:19:27;;;;;;;;;;;20.80;66.00;;;20.05;61.34;95864.59;4149332;34;19904;-86
2022/06/08 05:21:56;;;;;;;;;;;20.80;65.60;;;20.06;61.34;95867.03;4174408;34;19903;-86
2022/06/08 05:24:28;;;;;;;;;;;20.80;65.40;;;20.07;61.23;95865.06;4153907;34;20067;-86
2022/06/08 05:26:57;;;;;;;;;;;20.80;65.50;;;20.06;61.17;95855.13;4128985;34;20118;-86
2022/06/08 05:29:27;;;;;;;;;;;20.80;65.50;;;20.07;61.33;95862.31;4126972;34;19904;-85
2022/06/08 05:31:59;;;;;;;;;;;20.80;65.50;;;20.07;61.43;95865.06;4150317;34;19907;-87
2022/06/08 05:34:31;;;;;;;;;;;20.80;65.60;;;20.07;61.57;95862.31;4176688;34;19903;-85
2022/06/08 05:37:01;;;;;;;;;;;20.80;65.70;;;20.08;61.47;95859.16;4130380;34;19995;-85
2022/06/08 05:39:30;;;;;;;;;;;20.80;65.80;;;20.07;61.39;95862.31;4126660;34;19987;-87
2022/06/08 05:41:58;;;;;;;;;;;20.80;65.60;;;20.06;61.44;95849.56;4125863;34;19911;-86
2022/06/08 05:44:30;;;;;;;;;;;20.80;65.70;;;20.10;61.30;95860.78;4126594;34;19904;-86
2022/06/08 05:47:02;;;;;;;;;;;20.80;65.60;;;20.10;60.89;95858.81;4172125;34;19918;-85
2022/06/08 05:49:33;;;;;;;;;;;20.80;65.50;;;20.10;61.05;95850.47;4148348;34;20093;-86
2022/06/08 05:52:06;;;;;;;;;;;20.80;65.30;;;20.12;61.11;95861.28;4125960;34;20317;-86
2022/06/08 05:54:35;;;;;;;;;;;20.80;65.20;;;20.14;61.02;95858.97;4149266;34;20175;-86
2022/06/08 05:57:05;;;;;;;;;;;20.80;65.10;;;20.15;60.98;95853.06;4126511;34;19903;-86
2022/06/08 05:59:41;;;;;;;;;;;20.80;65.10;;;20.16;60.87;95857.47;4126646;34;19904;-86
2022/06/08 06:02:13;;;;;;;;;;;20.80;65.10;;;20.18;61.06;95852.38;4146296;34;20091;-86
2022/06/08 06:04:42;;;;;;;;;;;20.80;65.10;;;20.20;61.03;95858.38;4153790;34;19995;-86
2022/06/08 06:07:11;;;;;;;;;;;20.90;65.20;;;20.21;60.76;95857.25;4153582;34;19946;-85
2022/06/08 06:09:43;;;;;;;;;;;20.90;65.30;;;20.25;61.18;95857.38;4155594;34;19910;-85
2022/06/08 06:12:13;;;;;;;;;;;20.90;65.50;;;20.27;60.91;95855.06;4155716;34;19903;-85
2022/06/08 06:14:43;;;;;;;;;;;20.90;65.20;;;20.29;60.89;95863.06;4155637;34;20146;-86
2022/06/08 06:17:12;;;;;;;;;;;21.00;65.10;;;20.31;60.94;95866.31;4137475;34;20063;-86
2022/06/08 06:19:42;;;;;;;;;;;21.00;65.10;;;20.30;61.15;95865.50;4128622;34;19904;-86
2022/06/08 06:22:21;;;;;;;;;;;21.00;65.30;;;20.32;61.02;95856.84;4128373;34;20156;-86
2022/06/08 06:25:16;;;;;;;;;;;21.00;65.40;;;20.32;60.86;95857.63;4128559;34;19903;-86
2022/06/08 06:28:04;;;;;;;;;;;21.00;65.10;;;20.33;60.92;95859.25;4151148;34;20014;-86
2022/06/08 06:30:53;;;;;;;;;;;21.00;65.00;;;20.34;61.15;95860.88;4173568;34;19904;-85
2022/06/08 06:33:28;;;;;;;;;;;21.00;65.20;;;20.35;60.97;95858.91;4128599;34;19910;-86
2022/06/08 06:35:57;;;;;;;;;;;21.00;65.40;;;20.36;61.35;95857.75;4151065;34;20080;-86
2022/06/08 06:38:26;;;;;;;;;;;21.10;65.70;;;20.38;61.02;95861.00;4151110;34;19931;-86
2022/06/08 06:40:56;;;;;;;;;;;21.10;65.50;;;20.39;61.43;95857.06;4150669;34;19903;-86
2022/06/08 06:43:25;;;;;;;;;;;21.10;65.60;;;20.40;61.35;95855.91;4128239;34;20048;-85
2022/06/08 06:46:16;;;;;;;;;;;21.10;65.40;;;20.43;61.13;95863.59;4150627;34;19910;-85
2022/06/08 06:49:11;;;;;;;;;;;21.10;65.30;;;20.46;61.18;95856.50;4145889;34;20099;-86
2022/06/08 06:51:40;;;;;;;;;;;21.10;65.30;;;20.48;61.22;95855.00;4150560;34;19903;-86
2022/06/08 06:54:12;;;;;;;;;;;21.10;65.10;;;20.50;61.09;95851.91;4128310;34;19904;-86
2022/06/08 06:56:42;;;;;;;;;;;21.10;65.00;;;20.52;60.59;95849.59;4150958;34;19969;-86
2022/06/08 06:59:17;;;;;;;;;;;21.20;65.00;;;20.53;60.63;95852.00;4150919;34;19904;-86
2022/06/08 07:01:49;;;;;;;;;;;21.20;65.00;;;20.54;60.87;95848.09;4173262;34;19904;-86
2022/06/08 07:04:19;;;;;;;;;;;21.20;64.90;;;20.56;60.98;95846.94;4128239;34;20154;-86
2022/06/08 07:06:49;;;;;;;;;;;21.20;65.00;;;20.58;60.71;95853.75;4150664;34;20038;-87
2022/06/08 07:09:18;;;;;;;;;;;21.20;64.90;;;20.60;60.48;95853.41;4128189;34;19904;-86
2022/06/08 07:11:50;;;;;;;;;;;21.20;64.70;;;20.61;60.33;95841.13;4127947;34;20246;-87
2022/06/08 07:14:29;;;;;;;;;;;21.20;64.60;;;20.61;60.44;95844.72;4128171;34;19911;-87
2022/06/08 07:17:07;;;;;;;;;;;21.30;64.70;;;20.63;60.23;95850.78;4156161;34;19911;-87
2022/06/08 07:19:41;;;;;;;;;;;21.30;64.50;;;20.64;60.28;95846.00;4154794;34;20219;-87
2022/06/08 07:22:12;;;;;;;;;;;21.30;64.50;;;20.66;60.19;95844.50;4154402;34;19903;-87
2022/06/08 07:24:44;;;;;;;;;;;21.30;64.40;;;20.66;60.13;95844.50;4178120;34;19910;-87
2022/06/08 07:27:13;;;;;;;;;;;21.30;64.40;;;20.66;60.29;95832.56;4155023;34;20162;-87
2022/06/08 07:29:42;;;;;;;;;;;21.30;64.30;;;20.67;60.35;95845.31;4201263;33;19982;-87
2022/06/08 07:32:12;;;;;;;;;;;21.30;64.60;;;20.67;60.27;95829.44;4154574;34;20211;-87
2022/06/08 07:34:40;;;;;;;;;;;21.30;64.40;;;20.68;60.33;95831.06;4178148;34;19903;-86
2022/06/08 07:37:09;;;;;;;;;;;21.30;64.50;;;20.70;60.29;95833.50;4154838;34;19903;-87
2022/06/08 07:39:49;;;;;;;;;;;21.30;64.60;;;20.69;60.28;95826.31;4155100;34;19910;-87
2022/06/08 07:42:18;;;;;;;;;;;21.30;64.60;;;20.70;60.29;95831.53;4154733;34;19998;-86
2022/06/08 07:44:47;;;;;;;;;;;21.30;64.60;;;20.71;60.59;95837.91;4155006;34;20266;-85
2022/06/08 07:47:17;;;;;;;;;;;21.40;64.60;;;20.69;60.48;95832.69;4154975;34;20041;-87
2022/06/08 07:49:49;;;;;;;;;;;21.40;64.70;;;20.72;60.62;95831.16;4177784;34;20202;-87
2022/06/08 07:52:20;;;;;;;;;;;21.40;65.30;;;20.73;60.51;95835.59;4154830;34;19903;-87
2022/06/08 07:54:49;;;;;;;;;;;21.40;64.70;;;20.75;60.67;95835.28;4177726;34;20130;-86
2022/06/08 07:57:57;;;;;;;;;;;21.40;64.60;;;20.75;60.59;95841.66;4154828;34;20245;-86
2022/06/08 08:00:28;;;;;;;;;;;21.40;64.50;;;20.74;60.33;95825.28;4178244;34;20130;-87
2022/06/08 08:02:58;;;;;;;;;;;21.40;64.40;;;20.73;60.24;95821.66;4177687;34;19903;-86
2022/06/08 08:05:27;;;;;;;;;;;21.40;64.50;;;20.74;60.35;95823.28;4154744;34;19910;-87
2022/06/08 08:07:56;;;;;;;;;;;21.40;64.50;;;20.75;60.26;95819.38;4154716;34;20106;-86
2022/06/08 08:10:26;;;;;;;;;;;21.40;64.50;;;20.73;60.53;95818.88;4154223;34;20420;-87
2022/06/08 08:12:55;;;;;;;;;;;21.40;64.50;;;20.75;60.28;95819.38;4177694;34;20118;-87
2022/06/08 08:15:26;;;;;;;;;;;21.40;64.60;;;20.74;60.46;95822.50;4154605;34;20157;-88
2022/06/08 08:17:55;;;;;;;;;;;21.40;64.60;;;20.71;60.59;95812.88;4177480;34;20195;-87
2022/06/08 08:20:26;;;;;;;;;;;21.40;64.60;;;20.72;60.72;95816.47;4154013;34;20064;-87
2022/06/08 08:22:55;;;;;;;;;;;21.40;64.80;;;20.71;60.70;95810.09;4154610;34;20048;-87
2022/06/08 08:25:24;;;;;;;;;;;21.40;64.80;;;20.68;60.83;95803.25;4177314;34;20265;-86
2022/06/08 08:27:53;;;;;;;;;;;21.40;64.80;;;20.68;60.67;95816.34;4153347;34;19933;-86
2022/06/08 08:30:24;;;;;;;;;;;21.30;64.80;;;20.67;60.81;95807.19;4126875;34;19906;-87
2022/06/08 08:32:53;;;;;;;;;;;21.30;64.90;;;20.66;60.86;95799.19;4150614;34;19965;-87
2022/06/08 08:35:23;;;;;;;;;;;21.40;65.00;;;20.66;60.98;95804.75;4154325;34;19903;-86
2022/06/08 08:37:56;;;;;;;;;;;21.30;65.10;;;20.66;61.27;95799.19;4154497;34;20222;-87
2022/06/08 08:40:39;;;;;;;;;;;21.40;65.20;;;20.63;61.16;95800.72;4149409;34;20176;-87
2022/06/08 08:43:11;;;;;;;;;;;21.30;65.20;;;20.65;61.02;95808.69;4127283;34;19903;-86
2022/06/08 08:45:51;;;;;;;;;;;21.30;65.20;;;20.64;61.11;95809.84;4127087;34;20016;-86
2022/06/08 08:48:26;;;;;;;;;;;21.30;65.20;;;20.65;60.99;95808.69;4127209;34;20262;-86
2022/06/08 08:51:04;;;;;;;;;;;21.30;65.20;;;20.63;61.40;95803.50;4149472;34;20130;-86
2022/06/08 08:53:43;;;;;;;;;;;21.30;65.40;;;20.62;61.18;95799.09;4127124;34;20077;-86
2022/06/08 08:56:16;;;;;;;;;;;21.30;65.40;;;20.61;61.14;95796.63;4149609;34;19904;-86
2022/06/08 08:58:46;;;;;;;;;;;21.30;65.30;;;20.63;61.02;95794.31;4149695;34;19997;-86
2022/06/08 09:01:21;;;;;;;;;;;21.30;65.40;;;20.63;61.47;95802.66;4149100;34;19981;-87
2022/06/08 09:03:55;;;;;;;;;;;21.30;65.60;;;20.62;61.41;95798.25;4149702;34;20130;-87
2022/06/08 09:06:25;;;;;;;;;;;21.30;65.50;;;20.60;61.27;95790.28;4149489;34;19927;-87
2022/06/08 09:09:00;;;;;;;;;;;21.30;65.50;;;20.62;61.27;95792.69;4126988;34;19911;-88
2022/06/08 09:11:34;;;;;;;;;;;21.30;65.50;;;20.62;61.49;95796.31;4126679;34;20163;-86
2022/06/08 09:14:16;;;;;;;;;;;21.30;65.50;;;20.61;61.27;95794.69;4127061;34;20290;-86
2022/06/08 09:17:15;;;;;;;;;;;21.30;65.50;;;20.60;61.35;95783.88;4130853;34;19904;-87
2022/06/08 09:19:48;;;;;;;;;;;21.30;65.50;;;20.61;61.52;95788.28;4127007;34;20134;-86
2022/06/08 09:22:28;;;;;;;;;;;21.30;65.60;;;20.59;61.50;95788.66;4149347;34;19904;-86
2022/06/08 09:24:59;;;;;;;;;;;21.20;65.50;;;20.61;61.47;95785.50;4126687;34;20213;-87
2022/06/08 09:27:38;;;;;;;;;;;21.30;65.60;;;20.58;61.57;95775.09;4126819;34;20126;-87
2022/06/08 09:30:18;;;;;;;;;;;21.30;65.70;;;20.57;61.51;95771.50;4149050;34;20007;-87
2022/06/08 09:32:51;;;;;;;;;;;21.30;65.80;;;20.59;61.50;95790.63;4149576;34;20166;-87
2022/06/08 09:35:26;;;;;;;;;;;21.20;65.70;;;20.59;61.70;95771.97;4149429;34;19904;-87
2022/06/08 09:37:58;;;;;;;;;;;21.30;65.70;;;20.57;61.60;95770.69;4149520;34;19903;-87
2022/06/08 09:40:49;;;;;;;;;;;21.30;65.80;;;20.58;61.76;95767.56;4126333;34;19911;-87
2022/06/08 09:43:59;;;;;;;;;;;21.30;65.90;;;20.58;61.82;95763.97;4127220;34;19996;-86
2022/06/08 09:52:16;;;;;;;;;;;21.30;65.90;;;20.58;61.73;95761.19;4151115;34;19904;-87
2022/06/08 09:54:55;;;;;;;;;;;21.20;65.80;;;20.57;61.79;95759.56;4151601;34;19904;-87
2022/06/08 09:57:59;;;;;;;;;;;21.20;65.90;;;20.57;61.84;95762.34;4129116;34;19911;-87
2022/06/08 10:00:31;;;;;;;;;;;21.30;66.10;;;20.57;61.81;95754.00;4141534;34;19911;-87
2022/06/08 10:03:29;;;;;;;;;;;21.20;65.90;;;20.56;61.98;95746.81;4179184;34;19910;-87
2022/06/08 10:06:06;;;;;;;;;;;21.20;65.90;;;20.57;61.79;95751.22;4156143;34;20134;-88
2022/06/08 10:08:45;;;;;;;;;;;21.20;65.90;;;20.54;61.83;95745.19;4179178;34;20226;-87
2022/06/08 10:11:39;;;;;;;;;;;21.20;65.90;;;20.55;61.78;95748.78;4155808;34;20036;-87
2022/06/08 10:14:23;;;;;;;;;;;21.20;66.00;;;20.55;61.82;95740.44;4156139;34;20049;-88
2022/06/08 10:16:55;;;;;;;;;;;21.20;66.10;;;20.54;61.99;95742.41;4179012;34;20090;-88
2022/06/08 10:19:29;;;;;;;;;;;21.20;66.10;;;20.53;61.94;95735.22;4178887;34;19910;-87
2022/06/08 10:21:57;;;;;;;;;;;21.20;66.10;;;20.52;62.03;95722.47;4178411;34;19926;-88
2022/06/08 10:24:28;;;;;;;;;;;21.20;66.10;;;20.52;61.70;95727.25;4155946;34;19903;-87
2022/06/08 10:27:04;;;;;;;;;;;21.20;66.00;;;20.51;61.72;95731.97;4179404;34;20253;-87
2022/06/08 10:29:42;;;;;;;;;;;21.20;66.00;;;20.52;61.57;95725.25;4178752;34;19903;-88
2022/06/08 10:32:17;;;;;;;;;;;21.20;65.90;;;20.51;61.77;95723.63;4155442;34;19910;-87
2022/06/08 10:34:53;;;;;;;;;;;21.20;66.00;;;20.51;61.53;95725.63;4178879;34;19975;-87
2022/06/08 10:37:25;;;;;;;;;;;21.20;65.80;;;20.51;62.48;95720.84;4155649;34;20246;-87
2022/06/08 10:39:54;;;;;;;;;;;21.20;66.30;;;20.50;61.79;95716.44;4155472;34;20015;-87
2022/06/08 10:42:40;;;;;;;;;;;21.20;66.30;;;20.50;62.13;95699.75;4178769;34;19913;-87
2022/06/08 10:45:47;;;;;;;;;;;21.20;66.40;;;20.50;61.82;95704.53;4178462;34;20302;-87
2022/06/08 10:48:52;;;;;;;;;;;21.20;66.20;;;20.51;62.02;95708.94;4155234;34;19904;-87
2022/06/08 10:51:37;;;;;;;;;;;21.20;66.30;;;20.50;62.03;95702.53;4196924;33;19903;-87
2022/06/08 10:57:52;;;;;;;;;;;21.20;66.50;;;20.49;61.81;95692.56;4201471;33;20019;-86
2022/06/08 11:00:44;;;;;;;;;;;21.20;66.10;;;20.48;62.10;95693.72;4155094;34;19904;-87
2022/06/08 11:03:55;;;;;;;;;;;21.20;66.40;;;20.48;62.35;95687.38;4155654;34;20156;-87
2022/06/08 11:07:04;;;;;;;;;;;21.20;66.50;;;20.49;61.90;95683.44;4178062;34;20000;-87
2022/06/08 11:10:05;;;;;;;;;;;21.20;66.00;;;20.50;62.29;95694.19;4155445;34;20043;-86
2022/06/08 11:12:51;;;;;;;;;;;21.20;66.50;;;20.49;62.15;95675.91;4078515;34;19905;-87
2022/06/08 11:15:49;;;;;;;;;;;21.20;66.10;;;20.49;62.06;95678.69;4194608;33;20033;-87
2022/06/08 11:18:27;;;;;;;;;;;21.20;66.40;;;20.48;61.99;95673.47;4150627;34;19984;-87
2022/06/08 11:21:39;;;;;;;;;;;21.20;66.40;;;20.49;62.38;95673.13;4150259;34;20099;-87
2022/06/08 11:24:24;;;;;;;;;;;21.20;66.40;;;20.49;62.06;95664.78;4150772;34;19919;-87
2022/06/08 11:27:24;;;;;;;;;;;21.20;66.40;;;20.49;62.18;95662.00;4150472;34;19903;-87
2022/06/08 11:29:53;;;;;;;;;;;21.20;66.40;;;20.50;62.12;95665.59;4150283;34;19911;-86
2022/06/08 11:33:15;;;;;;;;;;;21.20;66.40;;;20.51;62.53;95656.91;4150416;34;19911;-86
2022/06/08 11:35:58;;;;;;;;;;;21.20;66.50;;;20.51;62.19;95665.25;4150425;34;20008;-88
2022/06/08 11:39:01;;;;;;;;;;;21.20;66.40;;;20.52;61.98;95663.28;4173472;34;20014;-88
2022/06/08 11:41:34;;;;;;;;;;;21.20;66.30;;;20.52;62.56;95661.31;4125242;34;19907;-87
2022/06/08 11:44:15;;;;;;;;;;;21.20;66.50;;;20.51;62.26;95654.13;4150571;34;19924;-87
2022/06/08 11:46:46;;;;;;;;;;;21.20;66.40;;;20.52;62.17;95647.41;4127754;34;20153;-87
2022/06/08 11:49:37;;;;;;;;;;;21.20;67.40;;;20.50;62.23;95652.50;4128053;34;19910;-87
2022/06/08 11:52:26;;;;;;;;;;;21.20;66.60;;;20.53;61.88;95657.38;4149967;34;19980;-87
2022/06/08 11:55:18;;;;;;;;;;;21.20;66.20;;;20.53;62.18;95651.81;4127715;34;20090;-87
2022/06/08 11:58:00;;;;;;;;;;;21.20;66.50;;;20.54;62.19;95650.66;4150213;34;19903;-87
2022/06/08 12:00:35;;;;;;;;;;;21.20;66.40;;;20.54;62.29;95649.81;4127309;34;20131;-87
2022/06/08 12:03:18;;;;;;;;;;;21.20;66.40;;;20.54;62.33;95650.66;4127576;34;20003;-87
2022/06/08 12:05:51;;;;;;;;;;;21.20;66.50;;;20.54;61.98;95636.75;4126749;34;20139;-87